sensor_id;sensor_type;location;lat;lon;timestamp;pressure;altitude;pressure_sealevel;temperature;humidity
8501;BME280;4288;48.484;10.024;2022-12-18T08:36:09;96594.19;;;-6.69;nan
8501;BME280;4288;48.484;10.024;2022-12-18T08:38:37;96820.66;;;-5.21;nan
8501;BME280;4288;48.484;10.024;2022-12-18T08:41:06;96821.72;;;-5.17;nan
8501;BME280;4288;48.484;10.024;2022-12-18T08:43:34;96814.47;;;-5.10;nan
8501;BME280;4288;48.484;10.024;2022-12-18T08:46:19;96808.75;;;-5.07;nan
8501;BME280;4288;48.484;10.024;2022-12-18T08:48:50;96815.31;;;-5.04;nan
8501;BME280;4288;48.484;10.024;2022-12-18T08:51:20;96814.28;;;-5.03;nan
8501;BME280;4288;48.484;10.024;2022-12-18T08:53:47;96818.97;;;-4.64;nan
8501;BME280;4288;48.484;10.024;2022-12-18T08:56:15;96826.69;;;-4.84;nan
8501;BME280;4288;48.484;10.024;2022-12-18T08:58:43;96826.19;;;-4.76;nan
8501;BME280;4288;48.484;10.024;2022-12-18T09:01:11;96829.31;;;-4.79;nan
8501;BME280;4288;48.484;10.024;2022-12-18T09:03:39;96819.91;;;-4.80;nan
8501;BME280;4288;48.484;10.024;2022-12-18T09:06:07;96829.59;;;-4.75;nan
8501;BME280;4288;48.484;10.024;2022-12-18T09:08:36;96821.31;;;-4.67;nan
8501;BME280;4288;48.484;10.024;2022-12-18T09:11:03;96821.09;;;-4.61;nan
8501;BME280;4288;48.484;10.024;2022-12-18T09:13:31;96817.41;;;-4.65;nan
8501;BME280;4288;48.484;10.024;2022-12-18T09:15:58;96823.69;;;-4.61;nan
8501;BME280;4288;48.484;10.024;2022-12-18T09:18:25;96823.56;;;-4.81;nan
8501;BME280;4288;48.484;10.024;2022-12-18T09:20:52;96829.34;;;-4.74;nan
8501;BME280;4288;48.484;10.024;2022-12-18T09:23:20;96821.81;;;-4.70;nan
8501;BME280;4288;48.484;10.024;2022-12-18T09:25:49;96825.31;;;-4.55;nan
8501;BME280;4288;48.484;10.024;2022-12-18T09:28:18;96825.50;;;-4.61;nan
8501;BME280;4288;48.484;10.024;2022-12-18T09:30:48;96824.78;;;-4.57;nan
8501;BME280;4288;48.484;10.024;2022-12-18T09:33:16;96830.03;;;-4.46;nan
8501;BME280;4288;48.484;10.024;2022-12-18T09:35:44;96821.72;;;-4.43;nan
8501;BME280;4288;48.484;10.024;2022-12-18T09:38:13;96806.84;;;-4.43;nan
8501;BME280;4288;48.484;10.024;2022-12-18T09:40:43;96811.59;;;-4.35;nan
8501;BME280;4288;48.484;10.024;2022-12-18T09:43:20;96808.75;;;-4.28;nan
8501;BME280;4288;48.484;10.024;2022-12-18T09:45:53;96816.59;;;-4.23;nan
8501;BME280;4288;48.484;10.024;2022-12-18T09:48:26;96816.81;;;-4.30;nan
8501;BME280;4288;48.484;10.024;2022-12-18T09:50:58;96812.63;;;-4.36;nan
8501;BME280;4288;48.484;10.024;2022-12-18T09:53:32;96814.44;;;-4.36;nan
8501;BME280;4288;48.484;10.024;2022-12-18T09:56:04;96811.59;;;-4.35;nan
8501;BME280;4288;48.484;10.024;2022-12-18T09:58:37;96819.34;;;-4.45;nan
8501;BME280;4288;48.484;10.024;2022-12-18T10:01:10;96818.09;;;-4.37;nan
8501;BME280;4288;48.484;10.024;2022-12-18T10:03:38;96817.25;;;-4.48;nan
8501;BME280;4288;48.484;10.024;2022-12-18T10:06:11;96820.44;;;-4.41;nan
8501;BME280;4288;48.484;10.024;2022-12-18T10:08:45;96814.63;;;-4.48;nan
8501;BME280;4288;48.484;10.024;2022-12-18T10:11:38;96811.59;;;-4.30;nan
8501;BME280;4288;48.484;10.024;2022-12-18T10:14:15;96817.09;;;-4.26;nan
8501;BME280;4288;48.484;10.024;2022-12-18T10:16:58;96807.22;;;-4.19;nan
8501;BME280;4288;48.484;10.024;2022-12-18T10:19:40;96800.75;;;-4.07;nan
8501;BME280;4288;48.484;10.024;2022-12-18T10:22:26;96797.91;;;-4.00;nan
8501;BME280;4288;48.484;10.024;2022-12-18T10:25:01;96791.94;;;-3.91;nan
8501;BME280;4288;48.484;10.024;2022-12-18T10:27:31;96791.69;;;-3.79;nan
8501;BME280;4288;48.484;10.024;2022-12-18T10:30:07;96790.38;;;-3.82;nan
8501;BME280;4288;48.484;10.024;2022-12-18T10:32:38;96790.94;;;-3.75;nan
8501;BME280;4288;48.484;10.024;2022-12-18T10:35:16;96800.31;;;-3.79;nan
8501;BME280;4288;48.484;10.024;2022-12-18T10:38:01;96798.41;;;-4.08;nan
8501;BME280;4288;48.484;10.024;2022-12-18T10:40:29;96798.63;;;-4.15;nan
8501;BME280;4288;48.484;10.024;2022-12-18T10:43:11;96798.22;;;-3.87;nan
8501;BME280;4288;48.484;10.024;2022-12-18T10:45:40;96803.66;;;-3.98;nan
8501;BME280;4288;48.484;10.024;2022-12-18T10:48:18;96799.19;;;-3.98;nan
8501;BME280;4288;48.484;10.024;2022-12-18T10:50:49;96810.91;;;-4.05;nan
8501;BME280;4288;48.484;10.024;2022-12-18T10:53:21;96807.59;;;-3.91;nan
8501;BME280;4288;48.484;10.024;2022-12-18T10:55:50;96803.66;;;-3.98;nan
8501;BME280;4288;48.484;10.024;2022-12-18T10:58:25;96799.75;;;-3.86;nan
8501;BME280;4288;48.484;10.024;2022-12-18T11:01:10;96798.47;;;-3.78;nan
8501;BME280;4288;48.484;10.024;2022-12-18T11:03:39;96800.09;;;-3.62;nan
8501;BME280;4288;48.484;10.024;2022-12-18T11:06:10;96809.47;;;-3.71;nan
8501;BME280;4288;48.484;10.024;2022-12-18T11:08:39;96820.19;;;-3.63;nan
8501;BME280;4288;48.484;10.024;2022-12-18T11:11:18;96827.72;;;-3.81;nan
8501;BME280;4288;48.484;10.024;2022-12-18T11:14:01;96824.84;;;-3.80;nan
8501;BME280;4288;48.484;10.024;2022-12-18T11:16:34;96818.56;;;-3.84;nan
8501;BME280;4288;48.484;10.024;2022-12-18T11:19:20;96805.28;;;-3.72;nan
8501;BME280;4288;48.484;10.024;2022-12-18T11:21:50;96806.38;;;-3.63;nan
8501;BME280;4288;48.484;10.024;2022-12-18T11:24:31;96807.66;;;-3.61;nan
8501;BME280;4288;48.484;10.024;2022-12-18T11:27:02;96812.38;;;-3.52;nan
8501;BME280;4288;48.484;10.024;2022-12-18T11:29:35;96811.34;;;-3.51;nan
8501;BME280;4288;48.484;10.024;2022-12-18T11:32:38;96809.28;;;-3.49;nan
8501;BME280;4288;48.484;10.024;2022-12-18T11:35:16;96798.03;;;-3.45;nan
8501;BME280;4288;48.484;10.024;2022-12-18T11:37:49;96789.94;;;-3.53;nan
8501;BME280;4288;48.484;10.024;2022-12-18T11:40:30;96795.63;;;-3.67;nan
8501;BME280;4288;48.484;10.024;2022-12-18T11:43:06;96797.22;;;-3.71;nan
8501;BME280;4288;48.484;10.024;2022-12-18T11:45:41;96784.13;;;-3.76;nan
8501;BME280;4288;48.484;10.024;2022-12-18T11:48:17;96790.44;;;-3.56;nan
8501;BME280;4288;48.484;10.024;2022-12-18T11:50:50;96777.66;;;-3.48;nan
8501;BME280;4288;48.484;10.024;2022-12-18T11:53:19;96769.53;;;-3.56;nan
8501;BME280;4288;48.484;10.024;2022-12-18T11:56:00;96772.44;;;-3.38;nan
8501;BME280;4288;48.484;10.024;2022-12-18T11:58:46;96767.22;;;-3.38;nan
8501;BME280;4288;48.484;10.024;2022-12-18T12:01:32;96766.44;;;-3.28;nan
8501;BME280;4288;48.484;10.024;2022-12-18T12:04:41;96767.72;;;-3.31;nan
8501;BME280;4288;48.484;10.024;2022-12-18T12:07:28;96765.38;;;-3.27;nan
8501;BME280;4288;48.484;10.024;2022-12-18T12:10:11;96754.41;;;-3.29;nan
8501;BME280;4288;48.484;10.024;2022-12-18T12:13:05;96758.88;;;-3.30;nan
8501;BME280;4288;48.484;10.024;2022-12-18T12:15:45;96745.25;;;-3.37;nan
8501;BME280;4288;48.484;10.024;2022-12-18T12:18:28;96738.72;;;-3.34;nan
8501;BME280;4288;48.484;10.024;2022-12-18T12:21:07;96734.03;;;-3.32;nan
8501;BME280;4288;48.484;10.024;2022-12-18T12:23:42;96738.22;;;-3.26;nan
8501;BME280;4288;48.484;10.024;2022-12-18T12:26:18;96744.22;;;-3.31;nan
8501;BME280;4288;48.484;10.024;2022-12-18T12:29:20;96744.22;;;-3.36;nan
8501;BME280;4288;48.484;10.024;2022-12-18T12:32:05;96741.63;;;-3.36;nan
8501;BME280;4288;48.484;10.024;2022-12-18T12:34:43;96724.59;;;-3.33;nan
8501;BME280;4288;48.484;10.024;2022-12-18T12:37:26;96721.22;;;-3.29;nan
8501;BME280;4288;48.484;10.024;2022-12-18T12:39:56;96727.47;;;-3.35;nan
8501;BME280;4288;48.484;10.024;2022-12-18T12:42:29;96725.91;;;-3.41;nan
8501;BME280;4288;48.484;10.024;2022-12-18T12:45:21;96726.97;;;-3.57;nan
8501;BME280;4288;48.484;10.024;2022-12-18T12:47:50;96730.63;;;-3.58;nan
8501;BME280;4288;48.484;10.024;2022-12-18T12:50:20;96728.00;;;-3.53;nan
8501;BME280;4288;48.484;10.024;2022-12-18T12:52:53;96738.44;;;-3.53;nan
8501;BME280;4288;48.484;10.024;2022-12-18T12:55:23;96727.22;;;-3.58;nan
8501;BME280;4288;48.484;10.024;2022-12-18T12:57:59;96732.66;;;-3.80;nan
8501;BME280;4288;48.484;10.024;2022-12-18T13:00:35;96730.88;;;-3.75;nan
8501;BME280;4288;48.484;10.024;2022-12-18T13:03:12;96738.69;;;-3.85;nan
8501;BME280;4288;48.484;10.024;2022-12-18T13:05:48;96735.81;;;-3.83;nan
8501;BME280;4288;48.484;10.024;2022-12-18T13:08:26;96728.25;;;-3.80;nan
8501;BME280;4288;48.484;10.024;2022-12-18T13:10:54;96730.31;;;-3.87;nan
8501;BME280;4288;48.484;10.024;2022-12-18T13:13:51;96731.31;;;-3.98;nan
8501;BME280;4288;48.484;10.024;2022-12-18T13:16:20;96736.56;;;-3.93;nan
8501;BME280;4288;48.484;10.024;2022-12-18T13:18:49;96733.44;;;-3.90;nan
8501;BME280;4288;48.484;10.024;2022-12-18T13:21:23;96733.19;;;-3.78;nan
8501;BME280;4288;48.484;10.024;2022-12-18T13:23:54;96729.31;;;-3.71;nan
8501;BME280;4288;48.484;10.024;2022-12-18T13:26:32;96732.41;;;-3.89;nan
8501;BME280;4288;48.484;10.024;2022-12-18T13:29:01;96742.28;;;-4.06;nan
8501;BME280;4288;48.484;10.024;2022-12-18T13:32:15;96733.47;;;-3.85;nan
8501;BME280;4288;48.484;10.024;2022-12-18T13:34:45;96735.31;;;-3.75;nan
8501;BME280;4288;48.484;10.024;2022-12-18T13:37:43;96740.75;;;-3.82;nan
8501;BME280;4288;48.484;10.024;2022-12-18T13:40:55;96743.59;;;-4.08;nan
8501;BME280;4288;48.484;10.024;2022-12-18T13:43:30;96743.28;;;-4.22;nan
8501;BME280;4288;48.484;10.024;2022-12-18T13:46:06;96738.38;;;-4.03;nan
8501;BME280;4288;48.484;10.024;2022-12-18T13:48:51;96741.25;;;-4.00;nan
8501;BME280;4288;48.484;10.024;2022-12-18T13:51:20;96743.06;;;-4.05;nan
8501;BME280;4288;48.484;10.024;2022-12-18T13:53:51;96737.06;;;-3.96;nan
8501;BME280;4288;48.484;10.024;2022-12-18T13:56:23;96731.94;;;-3.55;nan
8501;BME280;4288;48.484;10.024;2022-12-18T13:59:08;96742.59;;;-3.72;nan
8501;BME280;4288;48.484;10.024;2022-12-18T14:01:43;96731.09;;;-3.91;nan
8501;BME280;4288;48.484;10.024;2022-12-18T14:04:17;96727.44;;;-3.95;nan
8501;BME280;4288;48.484;10.024;2022-12-18T14:06:45;96728.47;;;-3.96;nan
8501;BME280;4288;48.484;10.024;2022-12-18T14:09:15;96722.97;;;-4.00;nan
8501;BME280;4288;48.484;10.024;2022-12-18T14:11:50;96724.03;;;-4.01;nan
8501;BME280;4288;48.484;10.024;2022-12-18T14:14:19;96720.63;;;-4.06;nan
8501;BME280;4288;48.484;10.024;2022-12-18T14:16:47;96731.81;;;-4.11;nan
8501;BME280;4288;48.484;10.024;2022-12-18T14:19:16;96734.16;;;-4.19;nan
8501;BME280;4288;48.484;10.024;2022-12-18T14:21:48;96732.53;;;-4.30;nan
8501;BME280;4288;48.484;10.024;2022-12-18T14:24:20;96728.34;;;-4.41;nan
8501;BME280;4288;48.484;10.024;2022-12-18T14:26:50;96732.53;;;-4.35;nan
8501;BME280;4288;48.484;10.024;2022-12-18T14:29:25;96730.66;;;-4.45;nan
8501;BME280;4288;48.484;10.024;2022-12-18T14:32:07;96738.19;;;-4.54;nan
8501;BME280;4288;48.484;10.024;2022-12-18T14:34:36;96728.06;;;-4.45;nan
8501;BME280;4288;48.484;10.024;2022-12-18T14:37:03;96732.28;;;-4.29;nan
8501;BME280;4288;48.484;10.024;2022-12-18T14:39:30;96740.34;;;-4.35;nan
8501;BME280;4288;48.484;10.024;2022-12-18T14:41:59;96742.91;;;-4.50;nan
8501;BME280;4288;48.484;10.024;2022-12-18T14:44:26;96740.84;;;-4.43;nan
8501;BME280;4288;48.484;10.024;2022-12-18T14:46:53;96743.94;;;-4.52;nan
8501;BME280;4288;48.484;10.024;2022-12-18T14:49:24;96743.66;;;-4.55;nan
8501;BME280;4288;48.484;10.024;2022-12-18T14:51:55;96744.75;;;-4.46;nan
8501;BME280;4288;48.484;10.024;2022-12-18T14:54:24;96746.03;;;-4.48;nan
8501;BME280;4288;48.484;10.024;2022-12-18T14:57:05;96747.28;;;-4.56;nan
8501;BME280;4288;48.484;10.024;2022-12-18T14:59:33;96743.41;;;-4.54;nan
8501;BME280;4288;48.484;10.024;2022-12-18T15:02:04;96743.13;;;-4.57;nan
8501;BME280;4288;48.484;10.024;2022-12-18T15:04:37;96748.34;;;-4.57;nan
8501;BME280;4288;48.484;10.024;2022-12-18T15:07:12;96746.53;;;-4.57;nan
8501;BME280;4288;48.484;10.024;2022-12-18T15:10:00;96742.03;;;-4.66;nan
8501;BME280;4288;48.484;10.024;2022-12-18T15:12:35;96736.00;;;-4.72;nan
8501;BME280;4288;48.484;10.024;2022-12-18T15:15:03;96753.50;;;-4.72;nan
8501;BME280;4288;48.484;10.024;2022-12-18T15:17:31;96757.91;;;-4.73;nan
8501;BME280;4288;48.484;10.024;2022-12-18T15:20:02;96759.19;;;-4.75;nan
8501;BME280;4288;48.484;10.024;2022-12-18T15:22:33;96757.63;;;-4.76;nan
8501;BME280;4288;48.484;10.024;2022-12-18T15:25:03;96762.31;;;-4.78;nan
8501;BME280;4288;48.484;10.024;2022-12-18T15:27:50;96762.34;;;-4.73;nan
8501;BME280;4288;48.484;10.024;2022-12-18T15:30:21;96759.19;;;-4.80;nan
8501;BME280;4288;48.484;10.024;2022-12-18T15:32:49;96758.06;;;-4.89;nan
8501;BME280;4288;48.484;10.024;2022-12-18T15:35:20;96750.75;;;-4.92;nan
8501;BME280;4288;48.484;10.024;2022-12-18T15:37:48;96760.38;;;-4.93;nan
8501;BME280;4288;48.484;10.024;2022-12-18T15:40:17;96748.41;;;-4.94;nan
8501;BME280;4288;48.484;10.024;2022-12-18T15:42:46;96753.84;;;-4.95;nan
8501;BME280;4288;48.484;10.024;2022-12-18T15:45:33;96746.59;;;-4.88;nan
8501;BME280;4288;48.484;10.024;2022-12-18T15:48:00;96752.09;;;-4.85;nan
8501;BME280;4288;48.484;10.024;2022-12-18T15:50:28;96751.81;;;-4.88;nan
8501;BME280;4288;48.484;10.024;2022-12-18T15:52:55;96750.50;;;-4.91;nan
8501;BME280;4288;48.484;10.024;2022-12-18T15:55:24;96753.84;;;-4.95;nan
8501;BME280;4288;48.484;10.024;2022-12-18T15:58:10;96749.41;;;-5.00;nan
8501;BME280;4288;48.484;10.024;2022-12-18T16:00:39;96748.81;;;-5.07;nan
8501;BME280;4288;48.484;10.024;2022-12-18T16:03:08;96744.38;;;-5.11;nan
8501;BME280;4288;48.484;10.024;2022-12-18T16:05:35;96754.53;;;-5.10;nan
8501;BME280;4288;48.484;10.024;2022-12-18T16:08:02;96756.88;;;-5.13;nan
8501;BME280;4288;48.484;10.024;2022-12-18T16:10:30;96757.06;;;-5.20;nan
8501;BME280;4288;48.484;10.024;2022-12-18T16:12:57;96760.47;;;-5.19;nan
8501;BME280;4288;48.484;10.024;2022-12-18T16:15:24;96753.66;;;-5.25;nan
8501;BME280;4288;48.484;10.024;2022-12-18T16:17:52;96747.38;;;-5.29;nan
8501;BME280;4288;48.484;10.024;2022-12-18T16:20:21;96750.00;;;-5.24;nan
8501;BME280;4288;48.484;10.024;2022-12-18T16:22:49;96747.94;;;-5.22;nan
8501;BME280;4288;48.484;10.024;2022-12-18T16:25:19;96741.66;;;-5.26;nan
8501;BME280;4288;48.484;10.024;2022-12-18T16:27:49;96747.88;;;-5.32;nan
8501;BME280;4288;48.484;10.024;2022-12-18T16:30:18;96746.00;;;-5.37;nan
8501;BME280;4288;48.484;10.024;2022-12-18T16:32:46;96752.22;;;-5.43;nan
8501;BME280;4288;48.484;10.024;2022-12-18T16:35:16;96756.09;;;-5.46;nan
8501;BME280;4288;48.484;10.024;2022-12-18T16:37:44;96750.97;;;-5.35;nan
8501;BME280;4288;48.484;10.024;2022-12-18T16:40:14;96747.78;;;-5.43;nan
8501;BME280;4288;48.484;10.024;2022-12-18T16:42:44;96752.19;;;-5.48;nan
8501;BME280;4288;48.484;10.024;2022-12-18T16:45:13;96752.13;;;-5.53;nan
8501;BME280;4288;48.484;10.024;2022-12-18T16:47:41;96747.09;;;-5.60;nan
8501;BME280;4288;48.484;10.024;2022-12-18T16:50:09;96744.03;;;-5.57;nan
8501;BME280;4288;48.484;10.024;2022-12-18T16:52:38;96742.00;;;-5.50;nan
8501;BME280;4288;48.484;10.024;2022-12-18T16:55:06;96743.50;;;-5.54;nan
8501;BME280;4288;48.484;10.024;2022-12-18T16:57:33;96743.03;;;-5.51;nan
8501;BME280;4288;48.484;10.024;2022-12-18T17:00:01;96741.34;;;-5.62;nan
8501;BME280;4288;48.484;10.024;2022-12-18T17:02:28;96731.81;;;-5.56;nan
8501;BME280;4288;48.484;10.024;2022-12-18T17:04:56;96732.25;;;-5.64;nan
8501;BME280;4288;48.484;10.024;2022-12-18T17:07:25;96727.28;;;-5.66;nan
8501;BME280;4288;48.484;10.024;2022-12-18T17:09:54;96727.84;;;-5.64;nan
8501;BME280;4288;48.484;10.024;2022-12-18T17:12:21;96728.06;;;-5.65;nan
8501;BME280;4288;48.484;10.024;2022-12-18T17:14:49;96731.16;;;-5.68;nan
8501;BME280;4288;48.484;10.024;2022-12-18T17:17:16;96733.69;;;-5.78;nan
8501;BME280;4288;48.484;10.024;2022-12-18T17:19:43;96733.94;;;-5.80;nan
8501;BME280;4288;48.484;10.024;2022-12-18T17:22:10;96726.41;;;-5.76;nan
8501;BME280;4288;48.484;10.024;2022-12-18T17:24:38;96730.88;;;-5.72;nan
8501;BME280;4288;48.484;10.024;2022-12-18T17:27:06;96729.84;;;-5.71;nan
8501;BME280;4288;48.484;10.024;2022-12-18T17:29:33;96723.59;;;-5.70;nan
8501;BME280;4288;48.484;10.024;2022-12-18T17:32:00;96731.16;;;-5.68;nan
8501;BME280;4288;48.484;10.024;2022-12-18T17:34:28;96728.31;;;-5.67;nan
8501;BME280;4288;48.484;10.024;2022-12-18T17:36:55;96720.53;;;-5.62;nan
8501;BME280;4288;48.484;10.024;2022-12-18T17:39:22;96723.13;;;-5.62;nan
8501;BME280;4288;48.484;10.024;2022-12-18T17:41:49;96716.81;;;-5.71;nan
8501;BME280;4288;48.484;10.024;2022-12-18T17:44:18;96728.28;;;-5.72;nan
8501;BME280;4288;48.484;10.024;2022-12-18T17:46:45;96725.31;;;-5.80;nan
8501;BME280;4288;48.484;10.024;2022-12-18T17:49:13;96733.13;;;-5.80;nan
8501;BME280;4288;48.484;10.024;2022-12-18T17:51:40;96733.38;;;-5.82;nan
8501;BME280;4288;48.484;10.024;2022-12-18T17:54:08;96729.75;;;-5.81;nan
8501;BME280;4288;48.484;10.024;2022-12-18T17:56:35;96727.13;;;-5.86;nan
8501;BME280;4288;48.484;10.024;2022-12-18T17:59:02;96738.59;;;-5.82;nan
8501;BME280;4288;48.484;10.024;2022-12-18T18:01:31;96745.91;;;-5.79;nan
8501;BME280;4288;48.484;10.024;2022-12-18T18:03:58;96745.13;;;-5.79;nan
8501;BME280;4288;48.484;10.024;2022-12-18T18:06:26;96733.22;;;-5.70;nan
8501;BME280;4288;48.484;10.024;2022-12-18T18:08:54;96740.75;;;-5.74;nan
8501;BME280;4288;48.484;10.024;2022-12-18T18:11:22;96753.69;;;-5.79;nan
8501;BME280;4288;48.484;10.024;2022-12-18T18:14:12;96750.00;;;-5.88;nan
8501;BME280;4288;48.484;10.024;2022-12-18T18:16:42;96750.31;;;-5.84;nan
8501;BME280;4288;48.484;10.024;2022-12-18T18:19:13;96737.84;;;-5.77;nan
8501;BME280;4288;48.484;10.024;2022-12-18T18:21:42;96742.59;;;-5.69;nan
8501;BME280;4288;48.484;10.024;2022-12-18T18:24:12;96747.81;;;-5.69;nan
8501;BME280;4288;48.484;10.024;2022-12-18T18:26:40;96748.41;;;-5.62;nan
8501;BME280;4288;48.484;10.024;2022-12-18T18:29:15;96743.50;;;-5.59;nan
8501;BME280;4288;48.484;10.024;2022-12-18T18:31:44;96741.06;;;-5.65;nan
8501;BME280;4288;48.484;10.024;2022-12-18T18:34:14;96730.94;;;-5.62;nan
8501;BME280;4288;48.484;10.024;2022-12-18T18:36:41;96724.69;;;-5.66;nan
8501;BME280;4288;48.484;10.024;2022-12-18T18:39:08;96719.78;;;-5.62;nan
8501;BME280;4288;48.484;10.024;2022-12-18T18:41:35;96711.97;;;-5.62;nan
8501;BME280;4288;48.484;10.024;2022-12-18T18:44:03;96719.25;;;-5.59;nan
8501;BME280;4288;48.484;10.024;2022-12-18T18:46:30;96713.25;;;-5.60;nan
8501;BME280;4288;48.484;10.024;2022-12-18T18:48:59;96713.03;;;-5.58;nan
8501;BME280;4288;48.484;10.024;2022-12-18T18:51:26;96707.00;;;-5.64;nan
8501;BME280;4288;48.484;10.024;2022-12-18T18:53:53;96716.09;;;-5.66;nan
8501;BME280;4288;48.484;10.024;2022-12-18T18:56:23;96721.53;;;-5.68;nan
8501;BME280;4288;48.484;10.024;2022-12-18T18:58:53;96717.31;;;-5.74;nan
8501;BME280;4288;48.484;10.024;2022-12-18T19:01:21;96718.16;;;-5.68;nan
8501;BME280;4288;48.484;10.024;2022-12-18T19:03:49;96707.00;;;-5.64;nan
8501;BME280;4288;48.484;10.024;2022-12-18T19:06:20;96706.22;;;-5.64;nan
8501;BME280;4288;48.484;10.024;2022-12-18T19:08:48;96701.81;;;-5.64;nan
8501;BME280;4288;48.484;10.024;2022-12-18T19:11:16;96693.13;;;-5.69;nan
8501;BME280;4288;48.484;10.024;2022-12-18T19:14:03;96698.84;;;-5.72;nan
8501;BME280;4288;48.484;10.024;2022-12-18T19:16:31;96695.25;;;-5.66;nan
8501;BME280;4288;48.484;10.024;2022-12-18T19:18:59;96685.31;;;-5.74;nan
8501;BME280;4288;48.484;10.024;2022-12-18T19:21:27;96682.72;;;-5.69;nan
8501;BME280;4288;48.484;10.024;2022-12-18T19:23:56;96680.13;;;-5.69;nan
8501;BME280;4288;48.484;10.024;2022-12-18T19:26:23;96678.59;;;-5.65;nan
8501;BME280;4288;48.484;10.024;2022-12-18T19:28:50;96682.78;;;-5.64;nan
8501;BME280;4288;48.484;10.024;2022-12-18T19:31:17;96679.91;;;-5.68;nan
8501;BME280;4288;48.484;10.024;2022-12-18T19:33:46;96690.78;;;-5.71;nan
8501;BME280;4288;48.484;10.024;2022-12-18T19:36:18;96683.50;;;-5.74;nan
8501;BME280;4288;48.484;10.024;2022-12-18T19:38:48;96681.44;;;-5.72;nan
8501;BME280;4288;48.484;10.024;2022-12-18T19:41:17;96690.00;;;-5.71;nan
8501;BME280;4288;48.484;10.024;2022-12-18T19:43:45;96697.25;;;-5.78;nan
8501;BME280;4288;48.484;10.024;2022-12-18T19:46:16;96699.66;;;-5.72;nan
8501;BME280;4288;48.484;10.024;2022-12-18T19:48:44;96702.00;;;-5.70;nan
8501;BME280;4288;48.484;10.024;2022-12-18T19:51:14;96696.97;;;-5.77;nan
8501;BME280;4288;48.484;10.024;2022-12-18T19:53:42;96699.41;;;-5.70;nan
8501;BME280;4288;48.484;10.024;2022-12-18T19:56:14;96697.78;;;-5.76;nan
8501;BME280;4288;48.484;10.024;2022-12-18T19:58:42;96698.28;;;-5.79;nan
8501;BME280;4288;48.484;10.024;2022-12-18T20:01:09;96703.22;;;-5.78;nan
8501;BME280;4288;48.484;10.024;2022-12-18T20:03:36;96705.59;;;-5.76;nan
8501;BME280;4288;48.484;10.024;2022-12-18T20:06:12;96705.34;;;-5.75;nan
8501;BME280;4288;48.484;10.024;2022-12-18T20:08:40;96716.03;;;-5.71;nan
8501;BME280;4288;48.484;10.024;2022-12-18T20:11:07;96709.16;;;-5.82;nan
8501;BME280;4288;48.484;10.024;2022-12-18T20:13:36;96714.38;;;-5.82;nan
8501;BME280;4288;48.484;10.024;2022-12-18T20:16:04;96690.47;;;-5.79;nan
8501;BME280;4288;48.484;10.024;2022-12-18T20:18:31;96676.75;;;-5.70;nan
8501;BME280;4288;48.484;10.024;2022-12-18T20:20:58;96668.97;;;-5.65;nan
8501;BME280;4288;48.484;10.024;2022-12-18T20:23:25;96667.09;;;-5.69;nan
8501;BME280;4288;48.484;10.024;2022-12-18T20:25:53;96661.41;;;-5.66;nan
8501;BME280;4288;48.484;10.024;2022-12-18T20:28:20;96660.88;;;-5.68;nan
8501;BME280;4288;48.484;10.024;2022-12-18T20:30:49;96667.63;;;-5.72;nan
8501;BME280;4288;48.484;10.024;2022-12-18T20:33:16;96690.75;;;-5.76;nan
8501;BME280;4288;48.484;10.024;2022-12-18T20:35:44;96688.16;;;-5.76;nan
8501;BME280;4288;48.484;10.024;2022-12-18T20:38:11;96685.59;;;-5.71;nan
8501;BME280;4288;48.484;10.024;2022-12-18T20:40:40;96682.94;;;-5.76;nan
8501;BME280;4288;48.484;10.024;2022-12-18T20:43:07;96686.56;;;-5.77;nan
8501;BME280;4288;48.484;10.024;2022-12-18T20:45:34;96686.09;;;-5.74;nan
8501;BME280;4288;48.484;10.024;2022-12-18T20:48:05;96677.31;;;-5.63;nan
8501;BME280;4288;48.484;10.024;2022-12-18T20:50:32;96665.56;;;-5.70;nan
8501;BME280;4288;48.484;10.024;2022-12-18T20:52:59;96655.63;;;-5.73;nan
8501;BME280;4288;48.484;10.024;2022-12-18T20:55:26;96648.66;;;-5.68;nan
8501;BME280;4288;48.484;10.024;2022-12-18T20:57:53;96660.06;;;-5.74;nan
8501;BME280;4288;48.484;10.024;2022-12-18T21:00:21;96668.88;;;-5.75;nan
8501;BME280;4288;48.484;10.024;2022-12-18T21:02:48;96667.91;;;-5.69;nan
8501;BME280;4288;48.484;10.024;2022-12-18T21:05:17;96663.47;;;-5.68;nan
8501;BME280;4288;48.484;10.024;2022-12-18T21:07:44;96650.75;;;-5.65;nan
8501;BME280;4288;48.484;10.024;2022-12-18T21:10:11;96639.53;;;-5.65;nan
8501;BME280;4288;48.484;10.024;2022-12-18T21:12:38;96644.97;;;-5.72;nan
8501;BME280;4288;48.484;10.024;2022-12-18T21:15:12;96642.06;;;-5.75;nan
8501;BME280;4288;48.484;10.024;2022-12-18T21:17:39;96641.25;;;-5.86;nan
8501;BME280;4288;48.484;10.024;2022-12-18T21:20:08;96646.19;;;-5.84;nan
8501;BME280;4288;48.484;10.024;2022-12-18T21:22:36;96646.19;;;-5.84;nan
8501;BME280;4288;48.484;10.024;2022-12-18T21:25:04;96639.44;;;-5.80;nan
8501;BME280;4288;48.484;10.024;2022-12-18T21:27:31;96641.50;;;-5.82;nan
8501;BME280;4288;48.484;10.024;2022-12-18T21:29:59;96640.72;;;-5.83;nan
8501;BME280;4288;48.484;10.024;2022-12-18T21:32:26;96641.59;;;-5.72;nan
8501;BME280;4288;48.484;10.024;2022-12-18T21:34:53;96624.91;;;-5.71;nan
8501;BME280;4288;48.484;10.024;2022-12-18T21:37:20;96636.63;;;-5.74;nan
8501;BME280;4288;48.484;10.024;2022-12-18T21:39:48;96635.59;;;-5.73;nan
8501;BME280;4288;48.484;10.024;2022-12-18T21:42:15;96624.69;;;-5.70;nan
8501;BME280;4288;48.484;10.024;2022-12-18T21:45:00;96631.97;;;-5.72;nan
8501;BME280;4288;48.484;10.024;2022-12-18T21:47:27;96625.22;;;-5.68;nan
8501;BME280;4288;48.484;10.024;2022-12-18T21:49:54;96635.88;;;-5.69;nan
8501;BME280;4288;48.484;10.024;2022-12-18T21:52:22;96634.31;;;-5.70;nan
8501;BME280;4288;48.484;10.024;2022-12-18T21:54:50;96630.63;;;-5.74;nan
8501;BME280;4288;48.484;10.024;2022-12-18T21:57:17;96634.03;;;-5.74;nan
8501;BME280;4288;48.484;10.024;2022-12-18T21:59:44;96622.09;;;-5.70;nan
8501;BME280;4288;48.484;10.024;2022-12-18T22:02:15;96609.63;;;-5.68;nan
8501;BME280;4288;48.484;10.024;2022-12-18T22:04:43;96611.72;;;-5.60;nan
8501;BME280;4288;48.484;10.024;2022-12-18T22:07:11;96656.22;;;-5.66;nan
8501;BME280;4288;48.484;10.024;2022-12-18T22:09:38;96656.94;;;-5.71;nan
8501;BME280;4288;48.484;10.024;2022-12-18T22:12:09;96637.19;;;-5.72;nan
8501;BME280;4288;48.484;10.024;2022-12-18T22:14:36;96631.66;;;-5.75;nan
8501;BME280;4288;48.484;10.024;2022-12-18T22:17:03;96634.88;;;-5.63;nan
8501;BME280;4288;48.484;10.024;2022-12-18T22:19:30;96639.31;;;-5.64;nan
8501;BME280;4288;48.484;10.024;2022-12-18T22:21:57;96641.66;;;-5.62;nan
8501;BME280;4288;48.484;10.024;2022-12-18T22:24:25;96621.56;;;-5.72;nan
8501;BME280;4288;48.484;10.024;2022-12-18T22:26:53;96628.31;;;-5.71;nan
8501;BME280;4288;48.484;10.024;2022-12-18T22:29:25;96633.56;;;-5.66;nan
8501;BME280;4288;48.484;10.024;2022-12-18T22:32:12;96625.28;;;-5.58;nan